ADDS METAR Data INFO
IDs: Format: Raw Decoded Include TAF

Data at: 1545 UTC 12 Dec 2017

KPOU 121453Z 00000KT 4SM BR OVC019 02/02 A2958 RMK AO2 RAE1354UPB11E22 SLP013 P0001 60002 T00220017 58028
KPOU 121418Z 00000KT 4SM UP BR OVC019 02/02 A2960 RMK AO2 RAE1354UPB11 P0001 T00220017
KPOU 121353Z 13003KT 4SM -RA BR FEW028 BKN036 OVC044 03/02 A2961 RMK AO2 RAB04E17B19E20B30UPB20E30 SLP025 P0001 T00280017
KPOU 121329Z 20003KT 3SM UP BR FEW028 BKN036 OVC044 03/01 A2962 RMK AO2 RAB04E17B19E20UPB20 P0001 T00330011
KPOU 121322Z 26004KT 5SM UP BR BKN019 BKN025 OVC034 03/01 A2963 RMK AO2 RAB04E17B19E20UPB20 P0000 T00280006
KPOU 121253Z 14007KT 7SM FEW028 BKN036 OVC044 03/01 A2963 RMK AO2 RAB1155E17B34E44 SLP032 P0000 T00330006
KPOU 121153Z AUTO VRB05KT 10SM SCT031 BKN041 OVC050 03/M01 A2966 RMK AO2 RAB35E44 SLP042 P0000 60000 T00331011 10033 20000 56028
KPOU 121151Z AUTO VRB03KT 10SM SCT031 BKN039 OVC050 03/M01 A2966 RMK AO2 RAB35E44 P0000
KPOU 121140Z AUTO 17003KT 10SM -RA BKN029 OVC041 03/M02 A2967 RMK AO2 RAB35 P0000 T00331017
KPOU 121053Z AUTO 00000KT 10SM BKN030 OVC041 03/M03 A2970 RMK AO2 SLP055 T00281033
KPOU 120953Z AUTO 15004KT 10SM OVC031 02/M04 A2974 RMK AO2 SLP070 T00221039
KPOU 120853Z AUTO 00000KT 10SM FEW055 OVC090 01/M04 A2979 RMK AO2 SLP085 60000 T00061039 58037
KPOU 120753Z AUTO 00000KT 10SM OVC075 01/M03 A2983 RMK AO2 SLP099 T00061033
KPOU 120653Z AUTO 00000KT 9SM OVC039 01/M03 A2987 RMK AO2 SNB0554E48 SLP113 P0000 T00061033
KPOU 120553Z AUTO VRB03KT 7SM OVC038 01/M05 A2990 RMK AO2 SLP123 T00111050 10011 21011 58022
KPOU 120453Z AUTO 15003KT 10SM SCT055 OVC090 01/M05 A2992 RMK AO2 SLP131 T00061050 400281011
KPOU 120353Z AUTO 00000KT 10SM OVC075 00/M05 A2995 RMK AO2 SLP140 T00001050
KPOU 120253Z AUTO 00000KT 10SM SCT090 OVC110 M01/M05 A2997 RMK AO2 SLP146 T10061050 58007
KPOU 120153Z AUTO 00000KT 10SM BKN090 OVC110 00/M05 A2998 RMK AO2 SLP151 T00001050
KPOU 120053Z 15003KT 10SM FEW120 00/M06 A2999 RMK AO2 SLP154 T00001056
KPOU 112353Z 00000KT 10SM SCT120 01/M06 A2999 RMK AO2 SLP153 T00061061 10028 20000 55003
KPOU 112253Z 00000KT 10SM CLR 01/M07 A2997 RMK AO2 SLP148 T00111067
KPOU 112153Z 30004KT 10SM BKN049 02/M07 A2998 RMK AO2 SLP151 T00171072
KPOU 112053Z 25005KT 10SM CLR 02/M08 A2999 RMK AO2 SLP154 T00171078 53007
KPOU 111953Z 26005KT 10SM BKN049 02/M08 A2998 RMK AO2 SLP151 T00221078
KPOU 111853Z 25005KT 10SM SCT050 03/M08 A2997 RMK AO2 SLP145 T00281078
KPOU 111753Z 23009KT 10SM SCT043 03/M07 A2997 RMK AO2 SLP147 T00281072 10028 21006 58013
KPOU 111653Z 26010KT 10SM SCT043 02/M07 A2999 RMK AO2 SLP155 T00221067
KPOU 111553Z 25007KT 10SM SCT038 02/M07 A3001 RMK AO2 SLP159 T00171067
KPOU 111453Z 25009KT 10SM CLR 01/M06 A3001 RMK AO2 SLP160 T00111061 51012
KPOU 111353Z 24005KT 10SM CLR 00/M06 A3000 RMK AO2 SLP158 T00001061
KPOU 111253Z 22003KT 10SM SCT080 00/M06 A3000 RMK AO2 SLP156 T00001061
KPOU 111153Z 20004KT 10SM OVC080 00/M06 A2997 RMK AO2 SLP148 T00001061 10006 20000 51008
KPOU 111053Z AUTO 22005KT 10SM SCT055 OVC070 00/M06 A2997 RMK AO2 SLP147 T00001061
KPOU 110953Z AUTO 22006KT 10SM BKN070 OVC090 00/M06 A2995 RMK AO2 SLP141 T00001061
KPOU 110853Z AUTO 22004KT 10SM OVC100 00/M07 A2995 RMK AO2 SLP139 T00001067 55007
KPOU 110753Z AUTO 21004KT 10SM FEW060 BKN120 01/M07 A2995 RMK AO2 SLP139 T00061067
KPOU 110653Z AUTO 22006KT 10SM OVC060 01/M06 A2997 RMK AO2 SLP146 T00061061
KPOU 110553Z AUTO 25008KT 10SM BKN050 OVC070 01/M07 A2997 RMK AO2 SLP146 T00061072 10017 20006 50003
KPOU 110453Z AUTO VRB03KT 10SM OVC095 01/M07 A2997 RMK AO2 SLP147 T00111072 400281050
KPOU 110353Z AUTO 22008KT 10SM OVC110 01/M07 A2996 RMK AO2 SLP144 T00111067